sensor_id;sensor_type;location;lat;lon;timestamp;P1;durP1;ratioP1;P2;durP2;ratioP2
13991;SDS011;7070;53.586;9.692;2022-08-11T00:00:59;0.30;;;0.30;;
13991;SDS011;7070;53.586;9.692;2022-08-11T00:03:32;0.40;;;0.40;;
13991;SDS011;7070;53.586;9.692;2022-08-11T00:06:01;0.40;;;0.40;;
13991;SDS011;7070;53.586;9.692;2022-08-11T00:08:29;0.33;;;0.33;;
13991;SDS011;7070;53.586;9.692;2022-08-11T00:10:59;0.30;;;0.30;;
13991;SDS011;7070;53.586;9.692;2022-08-11T00:13:30;0.30;;;0.30;;
13991;SDS011;7070;53.586;9.692;2022-08-11T00:15:59;0.40;;;0.40;;
13991;SDS011;7070;53.586;9.692;2022-08-11T00:18:27;0.40;;;0.40;;
13991;SDS011;7070;53.586;9.692;2022-08-11T00:20:56;0.33;;;0.33;;
13991;SDS011;7070;53.586;9.692;2022-08-11T00:23:26;0.40;;;0.40;;
13991;SDS011;7070;53.586;9.692;2022-08-11T00:25:55;0.30;;;0.30;;
13991;SDS011;7070;53.586;9.692;2022-08-11T00:28:27;0.30;;;0.30;;
13991;SDS011;7070;53.586;9.692;2022-08-11T00:30:56;0.40;;;0.40;;
13991;SDS011;7070;53.586;9.692;2022-08-11T00:33:29;0.40;;;0.40;;
13991;SDS011;7070;53.586;9.692;2022-08-11T00:35:58;0.40;;;0.40;;
13991;SDS011;7070;53.586;9.692;2022-08-11T00:38:31;0.30;;;0.30;;
13991;SDS011;7070;53.586;9.692;2022-08-11T00:41:03;0.40;;;0.40;;
13991;SDS011;7070;53.586;9.692;2022-08-11T00:43:49;0.40;;;0.40;;
13991;SDS011;7070;53.586;9.692;2022-08-11T00:46:30;0.40;;;0.40;;
13991;SDS011;7070;53.586;9.692;2022-08-11T00:49:08;0.30;;;0.30;;
13991;SDS011;7070;53.586;9.692;2022-08-11T00:51:49;0.40;;;0.40;;
13991;SDS011;7070;53.586;9.692;2022-08-11T00:54:38;0.30;;;0.30;;
13991;SDS011;7070;53.586;9.692;2022-08-11T00:57:35;0.30;;;0.30;;
13991;SDS011;7070;53.586;9.692;2022-08-11T01:00:31;0.40;;;0.40;;
13991;SDS011;7070;53.586;9.692;2022-08-11T01:03:09;0.30;;;0.30;;
13991;SDS011;7070;53.586;9.692;2022-08-11T01:05:55;0.40;;;0.40;;
13991;SDS011;7070;53.586;9.692;2022-08-11T01:11:55;0.40;;;0.40;;
13991;SDS011;7070;53.586;9.692;2022-08-11T01:21:05;0.40;;;0.40;;
13991;SDS011;7070;53.586;9.692;2022-08-11T01:24:19;0.40;;;0.40;;
13991;SDS011;7070;53.586;9.692;2022-08-11T01:33:53;0.40;;;0.40;;
13991;SDS011;7070;53.586;9.692;2022-08-11T01:36:55;0.33;;;0.33;;
13991;SDS011;7070;53.586;9.692;2022-08-11T01:45:47;0.30;;;0.30;;
13991;SDS011;7070;53.586;9.692;2022-08-11T01:48:21;0.40;;;0.40;;
13991;SDS011;7070;53.586;9.692;2022-08-11T01:51:04;0.30;;;0.30;;
13991;SDS011;7070;53.586;9.692;2022-08-11T01:53:47;0.30;;;0.30;;
13991;SDS011;7070;53.586;9.692;2022-08-11T01:59:18;0.40;;;0.40;;
13991;SDS011;7070;53.586;9.692;2022-08-11T02:02:10;0.33;;;0.33;;
13991;SDS011;7070;53.586;9.692;2022-08-11T02:05:09;0.40;;;0.40;;
13991;SDS011;7070;53.586;9.692;2022-08-11T02:07:48;0.40;;;0.40;;
13991;SDS011;7070;53.586;9.692;2022-08-11T02:10:24;0.37;;;0.37;;
13991;SDS011;7070;53.586;9.692;2022-08-11T02:13:16;0.37;;;0.37;;
13991;SDS011;7070;53.586;9.692;2022-08-11T02:18:59;0.40;;;0.40;;
13991;SDS011;7070;53.586;9.692;2022-08-11T02:21:51;0.40;;;0.40;;
13991;SDS011;7070;53.586;9.692;2022-08-11T02:24:44;0.30;;;0.30;;
13991;SDS011;7070;53.586;9.692;2022-08-11T02:27:17;0.40;;;0.40;;
13991;SDS011;7070;53.586;9.692;2022-08-11T02:29:50;0.40;;;0.40;;
13991;SDS011;7070;53.586;9.692;2022-08-11T02:32:31;0.33;;;0.33;;
13991;SDS011;7070;53.586;9.692;2022-08-11T02:35:22;0.40;;;0.40;;
13991;SDS011;7070;53.586;9.692;2022-08-11T02:38:04;0.40;;;0.40;;
13991;SDS011;7070;53.586;9.692;2022-08-11T02:40:41;0.30;;;0.30;;
13991;SDS011;7070;53.586;9.692;2022-08-11T02:43:20;0.40;;;0.40;;
13991;SDS011;7070;53.586;9.692;2022-08-11T02:46:05;0.40;;;0.40;;
13991;SDS011;7070;53.586;9.692;2022-08-11T02:48:50;0.40;;;0.40;;
13991;SDS011;7070;53.586;9.692;2022-08-11T02:51:43;0.40;;;0.40;;
13991;SDS011;7070;53.586;9.692;2022-08-11T02:54:22;0.30;;;0.30;;
13991;SDS011;7070;53.586;9.692;2022-08-11T02:56:53;0.50;;;0.50;;
13991;SDS011;7070;53.586;9.692;2022-08-11T02:59:29;0.40;;;0.40;;
13991;SDS011;7070;53.586;9.692;2022-08-11T03:02:19;0.40;;;0.40;;
13991;SDS011;7070;53.586;9.692;2022-08-11T03:05:11;0.40;;;0.40;;
13991;SDS011;7070;53.586;9.692;2022-08-11T03:07:49;0.40;;;0.40;;
13991;SDS011;7070;53.586;9.692;2022-08-11T03:10:47;0.40;;;0.40;;
13991;SDS011;7070;53.586;9.692;2022-08-11T03:13:33;0.40;;;0.40;;
13991;SDS011;7070;53.586;9.692;2022-08-11T03:16:28;0.40;;;0.40;;
13991;SDS011;7070;53.586;9.692;2022-08-11T03:19:14;0.40;;;0.40;;
13991;SDS011;7070;53.586;9.692;2022-08-11T03:21:51;0.40;;;0.40;;
13991;SDS011;7070;53.586;9.692;2022-08-11T03:24:24;0.30;;;0.30;;
13991;SDS011;7070;53.586;9.692;2022-08-11T03:27:11;0.40;;;0.40;;
13991;SDS011;7070;53.586;9.692;2022-08-11T03:30:00;0.40;;;0.40;;
13991;SDS011;7070;53.586;9.692;2022-08-11T03:32:33;0.40;;;0.40;;
13991;SDS011;7070;53.586;9.692;2022-08-11T03:35:07;0.30;;;0.30;;
13991;SDS011;7070;53.586;9.692;2022-08-11T03:37:40;0.40;;;0.40;;
13991;SDS011;7070;53.586;9.692;2022-08-11T03:40:26;0.40;;;0.40;;
13991;SDS011;7070;53.586;9.692;2022-08-11T03:43:25;0.40;;;0.40;;
13991;SDS011;7070;53.586;9.692;2022-08-11T03:46:03;0.37;;;0.37;;
13991;SDS011;7070;53.586;9.692;2022-08-11T03:48:42;0.40;;;0.40;;
13991;SDS011;7070;53.586;9.692;2022-08-11T03:51:18;0.40;;;0.40;;
13991;SDS011;7070;53.586;9.692;2022-08-11T03:54:00;0.40;;;0.40;;
13991;SDS011;7070;53.586;9.692;2022-08-11T03:56:49;0.40;;;0.40;;
13991;SDS011;7070;53.586;9.692;2022-08-11T04:00:03;0.40;;;0.40;;
13991;SDS011;7070;53.586;9.692;2022-08-11T04:12:18;0.40;;;0.40;;
13991;SDS011;7070;53.586;9.692;2022-08-11T04:15:03;0.40;;;0.40;;
13991;SDS011;7070;53.586;9.692;2022-08-11T04:18:23;0.40;;;0.40;;
13991;SDS011;7070;53.586;9.692;2022-08-11T04:24:26;0.30;;;0.30;;
13991;SDS011;7070;53.586;9.692;2022-08-11T04:27:23;0.40;;;0.40;;
13991;SDS011;7070;53.586;9.692;2022-08-11T04:30:03;0.40;;;0.40;;
13991;SDS011;7070;53.586;9.692;2022-08-11T04:32:41;0.30;;;0.30;;
13991;SDS011;7070;53.586;9.692;2022-08-11T04:35:38;0.40;;;0.40;;
13991;SDS011;7070;53.586;9.692;2022-08-11T04:38:18;0.33;;;0.33;;
13991;SDS011;7070;53.586;9.692;2022-08-11T04:41:18;0.40;;;0.40;;
13991;SDS011;7070;53.586;9.692;2022-08-11T04:44:18;0.40;;;0.40;;
13991;SDS011;7070;53.586;9.692;2022-08-11T04:47:18;0.40;;;0.40;;
13991;SDS011;7070;53.586;9.692;2022-08-11T04:50:16;0.37;;;0.37;;
13991;SDS011;7070;53.586;9.692;2022-08-11T04:53:25;0.50;;;0.50;;
13991;SDS011;7070;53.586;9.692;2022-08-11T04:56:17;0.40;;;0.40;;
13991;SDS011;7070;53.586;9.692;2022-08-11T04:59:17;0.40;;;0.40;;
13991;SDS011;7070;53.586;9.692;2022-08-11T05:02:23;0.40;;;0.40;;
13991;SDS011;7070;53.586;9.692;2022-08-11T05:05:24;0.40;;;0.40;;
13991;SDS011;7070;53.586;9.692;2022-08-11T05:11:10;0.50;;;0.50;;
13991;SDS011;7070;53.586;9.692;2022-08-11T05:14:18;0.40;;;0.40;;
13991;SDS011;7070;53.586;9.692;2022-08-11T05:17:10;0.40;;;0.40;;
13991;SDS011;7070;53.586;9.692;2022-08-11T05:19:58;0.40;;;0.40;;
13991;SDS011;7070;53.586;9.692;2022-08-11T05:22:43;0.40;;;0.40;;
13991;SDS011;7070;53.586;9.692;2022-08-11T05:25:34;0.40;;;0.40;;
13991;SDS011;7070;53.586;9.692;2022-08-11T05:28:29;0.40;;;0.40;;
13991;SDS011;7070;53.586;9.692;2022-08-11T05:31:15;0.40;;;0.40;;
13991;SDS011;7070;53.586;9.692;2022-08-11T05:34:07;0.33;;;0.33;;
13991;SDS011;7070;53.586;9.692;2022-08-11T05:36:56;0.40;;;0.40;;
13991;SDS011;7070;53.586;9.692;2022-08-11T05:39:30;0.30;;;0.30;;
13991;SDS011;7070;53.586;9.692;2022-08-11T05:42:20;0.40;;;0.40;;
13991;SDS011;7070;53.586;9.692;2022-08-11T05:45:09;0.40;;;0.40;;
13991;SDS011;7070;53.586;9.692;2022-08-11T05:47:55;0.30;;;0.30;;
13991;SDS011;7070;53.586;9.692;2022-08-11T05:50:40;0.40;;;0.40;;
13991;SDS011;7070;53.586;9.692;2022-08-11T05:53:25;0.30;;;0.30;;
13991;SDS011;7070;53.586;9.692;2022-08-11T05:56:10;0.40;;;0.40;;
13991;SDS011;7070;53.586;9.692;2022-08-11T05:58:47;0.30;;;0.30;;
13991;SDS011;7070;53.586;9.692;2022-08-11T06:01:20;0.30;;;0.30;;
13991;SDS011;7070;53.586;9.692;2022-08-11T06:03:49;0.30;;;0.30;;
13991;SDS011;7070;53.586;9.692;2022-08-11T06:06:35;0.30;;;0.30;;
13991;SDS011;7070;53.586;9.692;2022-08-11T06:09:05;0.30;;;0.30;;
13991;SDS011;7070;53.586;9.692;2022-08-11T06:11:36;0.20;;;0.20;;
13991;SDS011;7070;53.586;9.692;2022-08-11T06:14:05;0.30;;;0.30;;
13991;SDS011;7070;53.586;9.692;2022-08-11T06:16:34;0.30;;;0.30;;
13991;SDS011;7070;53.586;9.692;2022-08-11T06:19:03;0.30;;;0.30;;
13991;SDS011;7070;53.586;9.692;2022-08-11T06:21:31;0.30;;;0.30;;
13991;SDS011;7070;53.586;9.692;2022-08-11T06:24:03;0.30;;;0.30;;
13991;SDS011;7070;53.586;9.692;2022-08-11T06:26:36;0.30;;;0.30;;
13991;SDS011;7070;53.586;9.692;2022-08-11T06:29:06;0.30;;;0.30;;
13991;SDS011;7070;53.586;9.692;2022-08-11T06:31:35;0.20;;;0.20;;
13991;SDS011;7070;53.586;9.692;2022-08-11T06:34:07;0.30;;;0.30;;
13991;SDS011;7070;53.586;9.692;2022-08-11T06:36:38;0.30;;;0.30;;
13991;SDS011;7070;53.586;9.692;2022-08-11T06:39:16;0.20;;;0.20;;
13991;SDS011;7070;53.586;9.692;2022-08-11T06:41:52;0.20;;;0.20;;
13991;SDS011;7070;53.586;9.692;2022-08-11T06:44:32;0.30;;;0.30;;
13991;SDS011;7070;53.586;9.692;2022-08-11T06:47:06;0.30;;;0.30;;
13991;SDS011;7070;53.586;9.692;2022-08-11T06:49:36;0.30;;;0.30;;
13991;SDS011;7070;53.586;9.692;2022-08-11T06:52:27;0.30;;;0.30;;
13991;SDS011;7070;53.586;9.692;2022-08-11T06:54:57;0.27;;;0.27;;
13991;SDS011;7070;53.586;9.692;2022-08-11T06:57:37;0.30;;;0.30;;
13991;SDS011;7070;53.586;9.692;2022-08-11T07:00:24;0.20;;;0.20;;
13991;SDS011;7070;53.586;9.692;2022-08-11T07:02:56;0.20;;;0.20;;
13991;SDS011;7070;53.586;9.692;2022-08-11T07:05:27;0.20;;;0.20;;
13991;SDS011;7070;53.586;9.692;2022-08-11T07:08:24;0.30;;;0.30;;
13991;SDS011;7070;53.586;9.692;2022-08-11T07:14:45;0.20;;;0.20;;
13991;SDS011;7070;53.586;9.692;2022-08-11T07:17:36;0.20;;;0.20;;
13991;SDS011;7070;53.586;9.692;2022-08-11T07:20:08;0.20;;;0.20;;
13991;SDS011;7070;53.586;9.692;2022-08-11T07:22:56;0.30;;;0.30;;
13991;SDS011;7070;53.586;9.692;2022-08-11T07:25:45;0.27;;;0.27;;
13991;SDS011;7070;53.586;9.692;2022-08-11T07:28:41;0.20;;;0.20;;
13991;SDS011;7070;53.586;9.692;2022-08-11T07:31:23;0.20;;;0.20;;
13991;SDS011;7070;53.586;9.692;2022-08-11T07:33:58;0.30;;;0.30;;
13991;SDS011;7070;53.586;9.692;2022-08-11T07:36:38;0.20;;;0.20;;
13991;SDS011;7070;53.586;9.692;2022-08-11T07:39:06;0.30;;;0.30;;
13991;SDS011;7070;53.586;9.692;2022-08-11T07:41:39;0.20;;;0.20;;
13991;SDS011;7070;53.586;9.692;2022-08-11T07:44:07;0.20;;;0.20;;
13991;SDS011;7070;53.586;9.692;2022-08-11T07:46:37;0.23;;;0.23;;
13991;SDS011;7070;53.586;9.692;2022-08-11T07:49:24;0.20;;;0.20;;
13991;SDS011;7070;53.586;9.692;2022-08-11T07:52:09;0.30;;;0.30;;
13991;SDS011;7070;53.586;9.692;2022-08-11T07:54:53;0.20;;;0.20;;
13991;SDS011;7070;53.586;9.692;2022-08-11T07:57:21;0.30;;;0.30;;
13991;SDS011;7070;53.586;9.692;2022-08-11T08:00:06;0.30;;;0.30;;
13991;SDS011;7070;53.586;9.692;2022-08-11T08:02:51;0.20;;;0.20;;
13991;SDS011;7070;53.586;9.692;2022-08-11T08:05:38;0.30;;;0.30;;
13991;SDS011;7070;53.586;9.692;2022-08-11T08:08:24;0.30;;;0.30;;
13991;SDS011;7070;53.586;9.692;2022-08-11T08:11:09;0.20;;;0.20;;
13991;SDS011;7070;53.586;9.692;2022-08-11T08:13:54;0.20;;;0.20;;
13991;SDS011;7070;53.586;9.692;2022-08-11T08:16:39;0.30;;;0.30;;
13991;SDS011;7070;53.586;9.692;2022-08-11T08:19:25;0.20;;;0.20;;
13991;SDS011;7070;53.586;9.692;2022-08-11T08:21:54;0.20;;;0.20;;
13991;SDS011;7070;53.586;9.692;2022-08-11T08:24:21;0.20;;;0.20;;
13991;SDS011;7070;53.586;9.692;2022-08-11T08:26:48;0.30;;;0.30;;
13991;SDS011;7070;53.586;9.692;2022-08-11T08:29:25;0.20;;;0.20;;
13991;SDS011;7070;53.586;9.692;2022-08-11T08:32:11;0.20;;;0.20;;
13991;SDS011;7070;53.586;9.692;2022-08-11T08:34:40;0.20;;;0.20;;
13991;SDS011;7070;53.586;9.692;2022-08-11T08:37:09;0.20;;;0.20;;
13991;SDS011;7070;53.586;9.692;2022-08-11T08:39:37;0.20;;;0.20;;
13991;SDS011;7070;53.586;9.692;2022-08-11T08:42:06;0.20;;;0.20;;
13991;SDS011;7070;53.586;9.692;2022-08-11T08:44:39;0.20;;;0.20;;
13991;SDS011;7070;53.586;9.692;2022-08-11T08:47:09;0.20;;;0.20;;
13991;SDS011;7070;53.586;9.692;2022-08-11T08:49:44;0.20;;;0.20;;
13991;SDS011;7070;53.586;9.692;2022-08-11T08:52:17;0.30;;;0.30;;
13991;SDS011;7070;53.586;9.692;2022-08-11T08:54:47;0.20;;;0.20;;
13991;SDS011;7070;53.586;9.692;2022-08-11T08:57:18;0.20;;;0.20;;
13991;SDS011;7070;53.586;9.692;2022-08-11T08:59:47;0.23;;;0.23;;
13991;SDS011;7070;53.586;9.692;2022-08-11T09:02:15;0.20;;;0.20;;
13991;SDS011;7070;53.586;9.692;2022-08-11T09:04:44;0.10;;;0.10;;
13991;SDS011;7070;53.586;9.692;2022-08-11T09:07:13;0.20;;;0.20;;
13991;SDS011;7070;53.586;9.692;2022-08-11T09:09:43;0.20;;;0.20;;
13991;SDS011;7070;53.586;9.692;2022-08-11T09:12:12;0.20;;;0.20;;
13991;SDS011;7070;53.586;9.692;2022-08-11T09:14:41;0.20;;;0.20;;
13991;SDS011;7070;53.586;9.692;2022-08-11T09:19:54;0.20;;;0.20;;
13991;SDS011;7070;53.586;9.692;2022-08-11T09:22:24;0.20;;;0.20;;
13991;SDS011;7070;53.586;9.692;2022-08-11T09:25:11;0.20;;;0.20;;
13991;SDS011;7070;53.586;9.692;2022-08-11T09:27:56;0.30;;;0.30;;
13991;SDS011;7070;53.586;9.692;2022-08-11T09:30:24;0.20;;;0.20;;
13991;SDS011;7070;53.586;9.692;2022-08-11T09:32:52;0.20;;;0.20;;
13991;SDS011;7070;53.586;9.692;2022-08-11T09:35:22;0.20;;;0.20;;
13991;SDS011;7070;53.586;9.692;2022-08-11T09:37:51;0.30;;;0.30;;
13991;SDS011;7070;53.586;9.692;2022-08-11T09:40:38;0.30;;;0.30;;
13991;SDS011;7070;53.586;9.692;2022-08-11T09:43:09;0.30;;;0.30;;
13991;SDS011;7070;53.586;9.692;2022-08-11T09:45:54;0.20;;;0.20;;
13991;SDS011;7070;53.586;9.692;2022-08-11T09:48:25;0.20;;;0.20;;
13991;SDS011;7070;53.586;9.692;2022-08-11T09:50:56;0.20;;;0.20;;
13991;SDS011;7070;53.586;9.692;2022-08-11T09:53:25;0.20;;;0.20;;
13991;SDS011;7070;53.586;9.692;2022-08-11T09:55:56;0.20;;;0.20;;
13991;SDS011;7070;53.586;9.692;2022-08-11T09:58:24;0.30;;;0.30;;
13991;SDS011;7070;53.586;9.692;2022-08-11T10:00:51;0.20;;;0.20;;
13991;SDS011;7070;53.586;9.692;2022-08-11T10:03:24;0.20;;;0.20;;
13991;SDS011;7070;53.586;9.692;2022-08-11T10:05:53;0.20;;;0.20;;
13991;SDS011;7070;53.586;9.692;2022-08-11T10:08:41;0.20;;;0.20;;
13991;SDS011;7070;53.586;9.692;2022-08-11T10:11:11;0.20;;;0.20;;
13991;SDS011;7070;53.586;9.692;2022-08-11T10:13:41;0.20;;;0.20;;
13991;SDS011;7070;53.586;9.692;2022-08-11T10:16:27;0.10;;;0.10;;
13991;SDS011;7070;53.586;9.692;2022-08-11T10:18:58;0.20;;;0.20;;
13991;SDS011;7070;53.586;9.692;2022-08-11T10:21:29;0.15;;;0.15;;
13991;SDS011;7070;53.586;9.692;2022-08-11T10:24:02;0.20;;;0.20;;
13991;SDS011;7070;53.586;9.692;2022-08-11T10:26:49;0.20;;;0.20;;
13991;SDS011;7070;53.586;9.692;2022-08-11T10:29:23;0.20;;;0.20;;
13991;SDS011;7070;53.586;9.692;2022-08-11T10:32:09;0.20;;;0.20;;
13991;SDS011;7070;53.586;9.692;2022-08-11T10:34:54;0.20;;;0.20;;
13991;SDS011;7070;53.586;9.692;2022-08-11T10:37:22;0.20;;;0.20;;
13991;SDS011;7070;53.586;9.692;2022-08-11T10:39:50;0.20;;;0.20;;
13991;SDS011;7070;53.586;9.692;2022-08-11T10:42:21;0.20;;;0.20;;
13991;SDS011;7070;53.586;9.692;2022-08-11T10:45:06;0.20;;;0.20;;
13991;SDS011;7070;53.586;9.692;2022-08-11T10:47:55;0.20;;;0.20;;
13991;SDS011;7070;53.586;9.692;2022-08-11T10:50:22;0.30;;;0.30;;
13991;SDS011;7070;53.586;9.692;2022-08-11T10:53:08;0.15;;;0.15;;
13991;SDS011;7070;53.586;9.692;2022-08-11T10:55:52;0.20;;;0.20;;
13991;SDS011;7070;53.586;9.692;2022-08-11T10:58:39;0.20;;;0.20;;
13991;SDS011;7070;53.586;9.692;2022-08-11T11:01:14;0.20;;;0.20;;
13991;SDS011;7070;53.586;9.692;2022-08-11T11:03:41;0.25;;;0.25;;
13991;SDS011;7070;53.586;9.692;2022-08-11T11:06:12;0.30;;;0.30;;
13991;SDS011;7070;53.586;9.692;2022-08-11T11:08:50;0.22;;;0.22;;
13991;SDS011;7070;53.586;9.692;2022-08-11T11:11:22;0.20;;;0.20;;
13991;SDS011;7070;53.586;9.692;2022-08-11T11:14:15;0.10;;;0.10;;
13991;SDS011;7070;53.586;9.692;2022-08-11T11:17:02;0.10;;;0.10;;
13991;SDS011;7070;53.586;9.692;2022-08-11T11:19:49;0.20;;;0.20;;
13991;SDS011;7070;53.586;9.692;2022-08-11T11:22:23;0.20;;;0.20;;
13991;SDS011;7070;53.586;9.692;2022-08-11T11:28:09;0.20;;;0.20;;
13991;SDS011;7070;53.586;9.692;2022-08-11T11:30:54;0.10;;;0.10;;
13991;SDS011;7070;53.586;9.692;2022-08-11T11:33:34;0.30;;;0.30;;
13991;SDS011;7070;53.586;9.692;2022-08-11T11:36:11;0.20;;;0.20;;
13991;SDS011;7070;53.586;9.692;2022-08-11T11:38:44;0.20;;;0.20;;
13991;SDS011;7070;53.586;9.692;2022-08-11T11:41:12;0.20;;;0.20;;
13991;SDS011;7070;53.586;9.692;2022-08-11T11:43:52;0.20;;;0.20;;
13991;SDS011;7070;53.586;9.692;2022-08-11T11:46:22;0.20;;;0.20;;
13991;SDS011;7070;53.586;9.692;2022-08-11T11:48:51;0.10;;;0.10;;
13991;SDS011;7070;53.586;9.692;2022-08-11T11:51:20;0.20;;;0.20;;
13991;SDS011;7070;53.586;9.692;2022-08-11T11:53:47;0.20;;;0.20;;
13991;SDS011;7070;53.586;9.692;2022-08-11T11:56:15;0.20;;;0.20;;
13991;SDS011;7070;53.586;9.692;2022-08-11T11:58:42;0.20;;;0.20;;
13991;SDS011;7070;53.586;9.692;2022-08-11T12:01:28;0.20;;;0.20;;
13991;SDS011;7070;53.586;9.692;2022-08-11T12:03:58;0.20;;;0.20;;
13991;SDS011;7070;53.586;9.692;2022-08-11T12:06:30;0.20;;;0.20;;
13991;SDS011;7070;53.586;9.692;2022-08-11T12:08:58;0.10;;;0.10;;
13991;SDS011;7070;53.586;9.692;2022-08-11T12:11:25;0.20;;;0.20;;
13991;SDS011;7070;53.586;9.692;2022-08-11T12:14:11;0.30;;;0.30;;
13991;SDS011;7070;53.586;9.692;2022-08-11T12:16:44;0.20;;;0.20;;
13991;SDS011;7070;53.586;9.692;2022-08-11T12:19:13;0.30;;;0.30;;
13991;SDS011;7070;53.586;9.692;2022-08-11T12:21:43;0.20;;;0.20;;
13991;SDS011;7070;53.586;9.692;2022-08-11T12:24:29;0.20;;;0.20;;
13991;SDS011;7070;53.586;9.692;2022-08-11T12:27:20;0.20;;;0.20;;
13991;SDS011;7070;53.586;9.692;2022-08-11T12:29:48;0.15;;;0.15;;
13991;SDS011;7070;53.586;9.692;2022-08-11T12:32:18;0.30;;;0.30;;
13991;SDS011;7070;53.586;9.692;2022-08-11T12:34:46;0.20;;;0.20;;
13991;SDS011;7070;53.586;9.692;2022-08-11T12:37:13;0.20;;;0.20;;
13991;SDS011;7070;53.586;9.692;2022-08-11T12:39:47;0.17;;;0.17;;
13991;SDS011;7070;53.586;9.692;2022-08-11T12:42:36;0.10;;;0.10;;
13991;SDS011;7070;53.586;9.692;2022-08-11T12:45:22;0.13;;;0.13;;
13991;SDS011;7070;53.586;9.692;2022-08-11T12:47:56;0.20;;;0.20;;
13991;SDS011;7070;53.586;9.692;2022-08-11T12:50:46;0.20;;;0.20;;
13991;SDS011;7070;53.586;9.692;2022-08-11T12:53:35;0.28;;;0.28;;
13991;SDS011;7070;53.586;9.692;2022-08-11T12:56:07;0.20;;;0.20;;
13991;SDS011;7070;53.586;9.692;2022-08-11T12:58:53;0.20;;;0.20;;
13991;SDS011;7070;53.586;9.692;2022-08-11T13:01:39;0.20;;;0.20;;
13991;SDS011;7070;53.586;9.692;2022-08-11T13:04:26;0.20;;;0.20;;
13991;SDS011;7070;53.586;9.692;2022-08-11T13:07:11;0.20;;;0.20;;
13991;SDS011;7070;53.586;9.692;2022-08-11T13:09:39;0.25;;;0.25;;
13991;SDS011;7070;53.586;9.692;2022-08-11T13:12:08;0.20;;;0.20;;
13991;SDS011;7070;53.586;9.692;2022-08-11T13:14:52;0.20;;;0.20;;
13991;SDS011;7070;53.586;9.692;2022-08-11T13:17:20;0.20;;;0.20;;
13991;SDS011;7070;53.586;9.692;2022-08-11T13:19:49;0.20;;;0.20;;
13991;SDS011;7070;53.586;9.692;2022-08-11T13:22:17;0.20;;;0.20;;
13991;SDS011;7070;53.586;9.692;2022-08-11T13:24:48;0.20;;;0.20;;
13991;SDS011;7070;53.586;9.692;2022-08-11T13:27:19;0.20;;;0.20;;
13991;SDS011;7070;53.586;9.692;2022-08-11T13:29:47;0.20;;;0.20;;
13991;SDS011;7070;53.586;9.692;2022-08-11T13:32:16;0.20;;;0.20;;
13991;SDS011;7070;53.586;9.692;2022-08-11T13:34:45;0.20;;;0.20;;
13991;SDS011;7070;53.586;9.692;2022-08-11T13:37:14;0.10;;;0.10;;
13991;SDS011;7070;53.586;9.692;2022-08-11T13:39:45;0.20;;;0.20;;
13991;SDS011;7070;53.586;9.692;2022-08-11T13:42:13;0.20;;;0.20;;
13991;SDS011;7070;53.586;9.692;2022-08-11T13:44:44;0.20;;;0.20;;
13991;SDS011;7070;53.586;9.692;2022-08-11T13:47:12;0.17;;;0.17;;
13991;SDS011;7070;53.586;9.692;2022-08-11T13:49:40;0.20;;;0.20;;
13991;SDS011;7070;53.586;9.692;2022-08-11T13:52:09;0.20;;;0.20;;
13991;SDS011;7070;53.586;9.692;2022-08-11T13:54:40;0.20;;;0.20;;
13991;SDS011;7070;53.586;9.692;2022-08-11T13:57:08;0.20;;;0.20;;
13991;SDS011;7070;53.586;9.692;2022-08-11T13:59:39;0.20;;;0.20;;
13991;SDS011;7070;53.586;9.692;2022-08-11T14:02:07;0.20;;;0.20;;
13991;SDS011;7070;53.586;9.692;2022-08-11T14:04:40;0.20;;;0.20;;
13991;SDS011;7070;53.586;9.692;2022-08-11T14:07:09;0.13;;;0.13;;
13991;SDS011;7070;53.586;9.692;2022-08-11T14:09:40;0.30;;;0.30;;
13991;SDS011;7070;53.586;9.692;2022-08-11T14:12:11;0.20;;;0.20;;
13991;SDS011;7070;53.586;9.692;2022-08-11T14:15:01;0.20;;;0.20;;
13991;SDS011;7070;53.586;9.692;2022-08-11T14:17:32;0.22;;;0.22;;
13991;SDS011;7070;53.586;9.692;2022-08-11T14:20:05;0.30;;;0.30;;
13991;SDS011;7070;53.586;9.692;2022-08-11T14:22:35;0.20;;;0.20;;
13991;SDS011;7070;53.586;9.692;2022-08-11T14:25:07;0.20;;;0.20;;
13991;SDS011;7070;53.586;9.692;2022-08-11T14:27:36;0.20;;;0.20;;
13991;SDS011;7070;53.586;9.692;2022-08-11T14:30:04;0.15;;;0.15;;
13991;SDS011;7070;53.586;9.692;2022-08-11T14:32:51;0.20;;;0.20;;
13991;SDS011;7070;53.586;9.692;2022-08-11T14:35:19;0.20;;;0.20;;
13991;SDS011;7070;53.586;9.692;2022-08-11T14:37:46;0.20;;;0.20;;
13991;SDS011;7070;53.586;9.692;2022-08-11T14:40:14;0.30;;;0.30;;
13991;SDS011;7070;53.586;9.692;2022-08-11T14:42:56;0.13;;;0.13;;
13991;SDS011;7070;53.586;9.692;2022-08-11T14:45:41;0.20;;;0.20;;
13991;SDS011;7070;53.586;9.692;2022-08-11T14:48:27;0.20;;;0.20;;
13991;SDS011;7070;53.586;9.692;2022-08-11T14:50:54;0.20;;;0.20;;
13991;SDS011;7070;53.586;9.692;2022-08-11T14:53:21;0.10;;;0.10;;
13991;SDS011;7070;53.586;9.692;2022-08-11T14:55:50;0.20;;;0.20;;
13991;SDS011;7070;53.586;9.692;2022-08-11T14:58:50;0.20;;;0.20;;
13991;SDS011;7070;53.586;9.692;2022-08-11T15:01:17;0.20;;;0.20;;
13991;SDS011;7070;53.586;9.692;2022-08-11T15:04:02;0.13;;;0.13;;
13991;SDS011;7070;53.586;9.692;2022-08-11T15:06:29;0.20;;;0.20;;
13991;SDS011;7070;53.586;9.692;2022-08-11T15:08:57;0.20;;;0.20;;
13991;SDS011;7070;53.586;9.692;2022-08-11T15:11:27;0.20;;;0.20;;
13991;SDS011;7070;53.586;9.692;2022-08-11T15:14:13;0.20;;;0.20;;
13991;SDS011;7070;53.586;9.692;2022-08-11T15:17:01;0.20;;;0.20;;
13991;SDS011;7070;53.586;9.692;2022-08-11T15:19:32;0.20;;;0.20;;
13991;SDS011;7070;53.586;9.692;2022-08-11T15:22:00;0.20;;;0.20;;
13991;SDS011;7070;53.586;9.692;2022-08-11T15:24:44;0.15;;;0.15;;
13991;SDS011;7070;53.586;9.692;2022-08-11T15:27:13;0.10;;;0.10;;
13991;SDS011;7070;53.586;9.692;2022-08-11T15:30:03;0.20;;;0.20;;
13991;SDS011;7070;53.586;9.692;2022-08-11T15:32:48;0.20;;;0.20;;
13991;SDS011;7070;53.586;9.692;2022-08-11T15:35:34;0.20;;;0.20;;
13991;SDS011;7070;53.586;9.692;2022-08-11T15:38:20;0.20;;;0.20;;
13991;SDS011;7070;53.586;9.692;2022-08-11T15:40:48;0.13;;;0.13;;
13991;SDS011;7070;53.586;9.692;2022-08-11T15:43:37;0.20;;;0.20;;
13991;SDS011;7070;53.586;9.692;2022-08-11T15:46:26;0.20;;;0.20;;
13991;SDS011;7070;53.586;9.692;2022-08-11T15:48:56;0.20;;;0.20;;
13991;SDS011;7070;53.586;9.692;2022-08-11T15:51:28;0.13;;;0.13;;
13991;SDS011;7070;53.586;9.692;2022-08-11T15:54:00;0.20;;;0.20;;
13991;SDS011;7070;53.586;9.692;2022-08-11T15:56:32;0.10;;;0.10;;
13991;SDS011;7070;53.586;9.692;2022-08-11T15:59:04;0.20;;;0.20;;
13991;SDS011;7070;53.586;9.692;2022-08-11T16:01:50;0.20;;;0.20;;
13991;SDS011;7070;53.586;9.692;2022-08-11T16:04:50;0.15;;;0.15;;
13991;SDS011;7070;53.586;9.692;2022-08-11T16:07:19;0.20;;;0.20;;
13991;SDS011;7070;53.586;9.692;2022-08-11T16:09:52;0.30;;;0.30;;
13991;SDS011;7070;53.586;9.692;2022-08-11T16:12:24;0.20;;;0.20;;
13991;SDS011;7070;53.586;9.692;2022-08-11T16:14:55;0.20;;;0.20;;
13991;SDS011;7070;53.586;9.692;2022-08-11T16:17:43;0.20;;;0.20;;
13991;SDS011;7070;53.586;9.692;2022-08-11T16:20:13;0.20;;;0.20;;
13991;SDS011;7070;53.586;9.692;2022-08-11T16:22:44;0.20;;;0.20;;
13991;SDS011;7070;53.586;9.692;2022-08-11T16:25:14;0.20;;;0.20;;
13991;SDS011;7070;53.586;9.692;2022-08-11T16:27:46;0.20;;;0.20;;
13991;SDS011;7070;53.586;9.692;2022-08-11T16:30:17;0.20;;;0.20;;
13991;SDS011;7070;53.586;9.692;2022-08-11T16:32:44;0.20;;;0.20;;
13991;SDS011;7070;53.586;9.692;2022-08-11T16:35:16;0.28;;;0.28;;
13991;SDS011;7070;53.586;9.692;2022-08-11T16:38:03;0.20;;;0.20;;
13991;SDS011;7070;53.586;9.692;2022-08-11T16:40:50;0.20;;;0.20;;
13991;SDS011;7070;53.586;9.692;2022-08-11T16:43:20;0.20;;;0.20;;
13991;SDS011;7070;53.586;9.692;2022-08-11T16:46:07;0.20;;;0.20;;
13991;SDS011;7070;53.586;9.692;2022-08-11T16:48:57;0.20;;;0.20;;
13991;SDS011;7070;53.586;9.692;2022-08-11T16:51:26;0.20;;;0.20;;
13991;SDS011;7070;53.586;9.692;2022-08-11T16:53:53;0.20;;;0.20;;
13991;SDS011;7070;53.586;9.692;2022-08-11T16:56:21;0.20;;;0.20;;
13991;SDS011;7070;53.586;9.692;2022-08-11T16:58:51;0.20;;;0.20;;
13991;SDS011;7070;53.586;9.692;2022-08-11T17:01:40;0.22;;;0.22;;